createdAt,value
2023-04-15T00:01:03.960Z,86.64
2023-04-15T00:04:41.931Z,86.61
2023-04-15T00:08:19.655Z,86.63
2023-04-15T00:11:57.756Z,86.69
2023-04-15T00:15:34.510Z,86.73
2023-04-15T00:19:12.996Z,86.77
2023-04-15T00:22:49.821Z,86.81
2023-04-15T00:26:28.554Z,86.83
2023-04-15T00:30:05.934Z,86.81
2023-04-15T00:33:42.900Z,86.80
2023-04-15T00:37:20.572Z,86.82
2023-04-15T00:40:59.305Z,86.82
2023-04-15T00:44:36.149Z,86.84
2023-04-15T00:48:14.153Z,86.90
2023-04-15T00:51:51.640Z,86.92
2023-04-15T00:55:29.335Z,86.95
2023-04-15T00:59:07.337Z,86.97
2023-04-15T01:02:45.116Z,87.03
2023-04-15T01:06:22.398Z,87.02
2023-04-15T01:10:00.199Z,87.01
2023-04-15T01:13:37.649Z,86.99
2023-04-15T01:17:15.487Z,87.03
2023-04-15T01:20:53.311Z,87.04
2023-04-15T01:24:31.922Z,87.10
2023-04-15T01:28:09.696Z,87.06
2023-04-15T01:31:53.791Z,87.04
2023-04-15T01:35:24.198Z,86.96
2023-04-15T01:39:01.788Z,86.87
2023-04-15T01:42:38.988Z,86.81
2023-04-15T01:46:16.984Z,86.79
2023-04-15T01:49:54.050Z,86.82
2023-04-15T01:53:32.488Z,86.87
2023-04-15T01:57:10.070Z,86.94
2023-04-15T02:00:47.361Z,86.95
2023-04-15T02:04:25.125Z,87.02
2023-04-15T02:08:03.882Z,87.05
2023-04-15T02:11:40.483Z,87.10
2023-04-15T02:15:18.234Z,87.18
2023-04-15T02:18:55.902Z,87.23
2023-04-15T02:22:33.760Z,87.26
2023-04-15T02:26:11.142Z,87.27
2023-04-15T02:29:51.192Z,87.26
2023-04-15T02:33:26.365Z,87.26
2023-04-15T02:37:04.809Z,87.28
2023-04-15T02:40:42.343Z,87.29
2023-04-15T02:44:23.704Z,87.33
2023-04-15T02:47:56.961Z,87.32
2023-04-15T02:51:54.839Z,87.34
2023-04-15T02:55:12.744Z,87.29
2023-04-15T02:58:50.858Z,87.22
2023-04-15T03:02:28.013Z,87.17
2023-04-15T03:06:05.969Z,87.13
2023-04-15T03:09:43.095Z,87.10
2023-04-15T03:13:21.563Z,87.07
2023-04-15T03:16:59.683Z,87.00
2023-04-15T03:20:36.633Z,86.94
2023-04-15T03:24:13.944Z,86.91
2023-04-15T03:27:52.129Z,86.91
2023-04-15T03:31:29.285Z,86.92
2023-04-15T03:35:07.465Z,86.93
2023-04-15T03:38:44.429Z,86.94
2023-04-15T03:42:22.387Z,86.98
2023-04-15T03:46:01.856Z,87.01
2023-04-15T03:49:37.918Z,87.05
2023-04-15T03:53:16.164Z,87.05
2023-04-15T03:56:53.236Z,87.07
2023-04-15T04:00:30.778Z,87.07
2023-04-15T04:04:08.665Z,87.10
2023-04-15T04:07:46.378Z,87.08
2023-04-15T04:11:23.940Z,87.03
2023-04-15T04:15:01.809Z,86.99
2023-04-15T04:18:39.384Z,86.93
2023-04-15T04:22:16.975Z,86.81
2023-04-15T04:25:54.730Z,86.70
2023-04-15T04:29:32.119Z,86.60
2023-04-15T04:33:10.774Z,86.53
2023-04-15T04:36:47.290Z,86.47
2023-04-15T04:40:25.954Z,86.47
2023-04-15T04:44:02.810Z,86.47
2023-04-15T04:47:40.910Z,86.45
2023-04-15T04:51:18.596Z,86.47
2023-04-15T04:54:55.859Z,86.52
2023-04-15T04:58:33.452Z,86.51
2023-04-15T05:02:11.410Z,86.55
2023-04-15T05:05:49.450Z,86.56
2023-04-15T05:09:26.871Z,86.61
2023-04-15T05:13:04.298Z,86.66
2023-04-15T05:16:44.049Z,86.70
2023-04-15T05:20:19.986Z,86.74
2023-04-15T05:23:57.285Z,86.70
2023-04-15T05:27:34.915Z,86.69
2023-04-15T05:31:12.665Z,86.66
2023-04-15T05:34:50.579Z,86.61
2023-04-15T05:38:28.374Z,86.54
2023-04-15T05:42:06.309Z,86.43
2023-04-15T05:45:43.321Z,86.13
2023-04-15T05:49:21.349Z,85.92
2023-04-15T05:52:58.651Z,85.82
2023-04-15T05:56:36.221Z,85.73
2023-04-15T06:00:15.410Z,85.66
2023-04-15T06:03:52.119Z,85.69
2023-04-15T06:07:29.692Z,85.77
2023-04-15T06:11:07.439Z,85.86
2023-04-15T06:14:44.682Z,85.96
2023-04-15T06:18:22.400Z,86.06
2023-04-15T06:22:00.521Z,86.15
2023-04-15T06:25:37.637Z,86.20
2023-04-15T06:29:15.589Z,86.29
2023-04-15T06:32:53.634Z,86.35
2023-04-15T06:36:31.236Z,86.30
2023-04-15T06:40:10.220Z,86.28
2023-04-15T06:43:46.329Z,86.24
2023-04-15T06:47:23.668Z,86.29
2023-04-15T06:51:02.088Z,86.25
2023-04-15T06:54:39.484Z,86.22
2023-04-15T06:58:16.544Z,86.18
2023-04-15T07:01:54.781Z,86.13
2023-04-15T07:05:32.581Z,86.12
2023-04-15T07:09:10.034Z,86.11
2023-04-15T07:12:49.574Z,86.08
2023-04-15T07:16:26.616Z,86.01
2023-04-15T07:20:06.268Z,85.93
2023-04-15T07:23:40.517Z,85.81
2023-04-15T07:27:18.240Z,85.59
2023-04-15T07:30:57.350Z,85.42
2023-04-15T07:34:33.366Z,85.11
2023-04-15T07:38:13.636Z,84.93
2023-04-15T07:41:49.493Z,84.79
2023-04-15T07:45:27.558Z,84.65
2023-04-15T07:49:04.856Z,84.63
2023-04-15T07:52:42.359Z,84.60
2023-04-15T07:56:19.810Z,84.53
2023-04-15T07:59:57.269Z,84.56
2023-04-15T08:03:35.484Z,84.55
2023-04-15T08:07:12.867Z,84.58
2023-04-15T08:10:52.475Z,84.58
2023-04-15T08:14:28.141Z,84.56
2023-04-15T08:18:05.448Z,84.56
2023-04-15T08:21:43.677Z,84.49
2023-04-15T08:25:21.321Z,84.53
2023-04-15T08:28:59.075Z,84.50
2023-04-15T08:32:55.457Z,84.45
2023-04-15T08:36:14.996Z,84.45
2023-04-15T08:39:51.536Z,84.37
2023-04-15T08:43:34.737Z,84.28
2023-04-15T08:47:09.417Z,84.12
2023-04-15T08:50:45.621Z,83.97
2023-04-15T08:54:23.098Z,83.92
2023-04-15T08:58:02.532Z,83.82
2023-04-15T09:01:38.654Z,83.66
2023-04-15T09:05:16.921Z,83.62
2023-04-15T09:08:53.292Z,83.48
2023-04-15T09:12:31.777Z,83.35
2023-04-15T09:16:09.562Z,83.25
2023-04-15T09:19:46.394Z,83.09
2023-04-15T09:23:23.936Z,82.98
2023-04-15T09:27:02.627Z,82.86
2023-04-15T09:30:39.302Z,82.82
2023-04-15T09:34:18.104Z,82.85
2023-04-15T09:38:10.012Z,82.44
2023-04-15T09:41:32.435Z,81.91
2023-04-15T09:45:12.295Z,81.13
2023-04-15T09:48:48.423Z,80.33
2023-04-15T09:52:25.555Z,79.81
2023-04-15T09:56:03.483Z,79.62
2023-04-15T09:59:41.062Z,79.32
2023-04-15T10:03:23.802Z,79.09
2023-04-15T10:06:57.277Z,79.00
2023-04-15T10:10:34.604Z,78.99
2023-04-15T10:14:13.877Z,78.93
2023-04-15T10:17:53.753Z,78.84
2023-04-15T10:21:28.675Z,78.73
2023-04-15T10:25:07.366Z,78.67
2023-04-15T10:28:42.235Z,78.57
2023-04-15T10:32:22.179Z,78.74
2023-04-15T10:35:58.502Z,78.98
2023-04-15T10:39:38.442Z,79.32
2023-04-15T10:43:27.472Z,79.62
2023-04-15T10:46:52.855Z,79.72
2023-04-15T10:50:32.855Z,79.78
2023-04-15T10:54:10.651Z,79.99
2023-04-15T10:57:44.423Z,80.02
2023-04-15T11:01:23.600Z,79.96
2023-04-15T11:04:59.339Z,79.77
2023-04-15T11:08:57.069Z,79.72
2023-04-15T11:12:14.379Z,79.83
2023-04-15T11:15:55.763Z,80.04
2023-04-15T11:19:37.431Z,80.11
2023-04-15T11:23:32.095Z,80.45
2023-04-15T11:26:45.062Z,80.61
2023-04-15T11:30:28.910Z,80.70
2023-04-15T11:34:01.604Z,80.65
2023-04-15T11:37:38.516Z,80.70
2023-04-15T11:41:15.649Z,80.79
2023-04-15T11:45:18.368Z,80.88
2023-04-15T11:48:33.223Z,80.98
2023-04-15T11:52:12.648Z,81.04
2023-04-15T11:55:48.833Z,81.06
2023-04-15T11:59:28.186Z,81.07
2023-04-15T12:03:26.501Z,81.16
2023-04-15T12:06:41.836Z,80.90
2023-04-15T12:10:19.091Z,80.65
2023-04-15T12:13:57.767Z,80.58
2023-04-15T12:17:51.031Z,80.57
2023-04-15T12:21:12.297Z,80.28
2023-04-15T12:24:57.581Z,80.15
2023-04-15T12:28:31.032Z,80.50
2023-04-15T12:32:06.829Z,80.61
2023-04-15T12:35:42.639Z,80.86
2023-04-15T12:39:30.469Z,81.03
2023-04-15T12:42:57.674Z,81.21
2023-04-15T12:46:35.804Z,81.37
2023-04-15T12:50:13.476Z,81.44
2023-04-15T12:53:51.360Z,81.40
2023-04-15T12:57:28.951Z,81.44
2023-04-15T13:01:07.046Z,81.55
2023-04-15T13:04:44.298Z,81.50
2023-04-15T13:08:21.882Z,81.52
2023-04-15T13:11:59.663Z,81.72
2023-04-15T13:15:37.249Z,81.63
2023-04-15T13:19:14.937Z,81.65
2023-04-15T13:22:53.425Z,81.76
2023-04-15T13:26:31.418Z,81.86
2023-04-15T13:30:08.691Z,82.07
2023-04-15T13:33:45.529Z,82.15
2023-04-15T13:37:30.634Z,82.12
2023-04-15T13:41:01.205Z,82.03
2023-04-15T13:44:38.757Z,82.08
2023-04-15T13:48:16.362Z,82.26
2023-04-15T13:51:54.270Z,82.27
2023-04-15T13:55:31.901Z,82.24
2023-04-15T13:59:09.611Z,82.29
2023-04-15T14:02:47.220Z,82.34
2023-04-15T14:06:25.090Z,82.50
2023-04-15T14:10:02.424Z,82.68
2023-04-15T14:13:39.908Z,82.72
2023-04-15T14:17:17.750Z,82.65
2023-04-15T14:20:55.677Z,82.57
2023-04-15T14:24:33.196Z,82.57
2023-04-15T14:28:11.102Z,82.66
2023-04-15T14:32:11.552Z,82.64
2023-04-15T14:35:26.885Z,82.74
2023-04-15T14:39:04.372Z,82.86
2023-04-15T14:42:41.623Z,82.98
2023-04-15T14:46:19.092Z,83.12
2023-04-15T14:49:57.114Z,83.18
2023-04-15T14:53:34.926Z,83.36
2023-04-15T14:57:12.568Z,83.48
2023-04-15T15:00:50.109Z,83.57
2023-04-15T15:04:27.968Z,83.70
2023-04-15T15:08:07.822Z,83.79
2023-04-15T15:11:42.976Z,83.86
2023-04-15T15:18:58.119Z,83.99
2023-04-15T15:22:36.156Z,83.94
2023-04-15T15:26:13.709Z,83.94
2023-04-15T15:29:51.638Z,84.05
2023-04-15T15:33:30.233Z,84.09
2023-04-15T15:37:06.568Z,84.17
2023-04-15T15:40:44.482Z,84.25
2023-04-15T15:44:21.971Z,84.37
2023-04-15T15:48:00.492Z,84.38
2023-04-15T15:51:37.534Z,84.29
2023-04-15T15:55:15.093Z,84.19
2023-04-15T15:58:52.941Z,84.13
2023-04-15T16:02:59.842Z,84.16
2023-04-15T16:06:08.284Z,84.22
2023-04-15T16:09:46.271Z,84.16
2023-04-15T16:13:23.712Z,84.18
2023-04-15T16:17:01.450Z,84.16
2023-04-15T16:20:39.821Z,84.12
2023-04-15T16:24:17.287Z,84.18
2023-04-15T16:28:03.530Z,84.25
2023-04-15T16:31:32.739Z,84.28
2023-04-15T16:35:10.369Z,84.34
2023-04-15T16:38:48.963Z,84.48
2023-04-15T16:42:25.180Z,84.52
2023-04-15T16:46:02.887Z,84.64
2023-04-15T16:49:40.436Z,84.66
2023-04-15T16:53:18.304Z,84.68
2023-04-15T16:56:59.419Z,84.80
2023-04-15T17:00:33.478Z,84.89
2023-04-15T17:04:11.613Z,84.77
2023-04-15T17:07:48.676Z,84.86
2023-04-15T17:11:28.334Z,84.94
2023-04-15T17:15:04.269Z,84.89
2023-04-15T17:18:41.849Z,85.05
2023-04-15T17:22:19.983Z,85.03
2023-04-15T17:25:56.899Z,85.08
2023-04-15T17:29:34.515Z,85.16
2023-04-15T17:33:59.129Z,85.17
2023-04-15T17:36:51.561Z,85.15
2023-04-15T17:40:46.565Z,85.32
2023-04-15T17:44:05.329Z,85.07
2023-04-15T17:47:43.286Z,85.14
2023-04-15T17:51:22.075Z,85.11
2023-04-15T17:54:58.764Z,85.06
2023-04-15T17:58:35.927Z,85.06
2023-04-15T18:02:14.880Z,85.26
2023-04-15T18:05:51.650Z,85.28
2023-04-15T18:09:29.481Z,85.17
2023-04-15T18:13:07.123Z,85.11
2023-04-15T18:16:44.702Z,85.12
2023-04-15T18:20:22.264Z,85.10
2023-04-15T18:23:59.872Z,85.18
2023-04-15T18:27:39.417Z,85.31
2023-04-15T18:31:15.192Z,85.39
2023-04-15T18:34:53.144Z,85.50
2023-04-15T18:38:30.836Z,85.62
2023-04-15T18:42:08.387Z,85.63
2023-04-15T18:45:46.086Z,85.63
2023-04-15T18:49:27.565Z,85.63
2023-04-15T18:53:01.357Z,85.61
2023-04-15T18:56:39.373Z,85.50
2023-04-15T19:00:17.546Z,85.42
2023-04-15T19:03:54.089Z,85.46
2023-04-15T19:07:32.200Z,85.42
2023-04-15T19:11:09.527Z,85.45
2023-04-15T19:14:47.447Z,85.54
2023-04-15T19:18:24.992Z,85.44
2023-04-15T19:22:03.895Z,85.36
2023-04-15T19:25:40.240Z,85.33
2023-04-15T19:29:18.704Z,85.35
2023-04-15T19:32:55.926Z,85.40
2023-04-15T19:36:33.462Z,85.50
2023-04-15T19:40:11.076Z,85.55
2023-04-15T19:43:48.603Z,85.54
2023-04-15T19:47:27.561Z,85.57
2023-04-15T19:51:04.587Z,85.56
2023-04-15T19:54:42.123Z,85.58
2023-04-15T19:58:19.884Z,85.60
2023-04-15T20:01:57.609Z,85.66
2023-04-15T20:05:34.741Z,85.69
2023-04-15T20:09:12.524Z,85.73
2023-04-15T20:12:52.801Z,85.88
2023-04-15T20:16:27.966Z,86.03
2023-04-15T20:20:07.640Z,86.04
2023-04-15T20:23:43.323Z,86.09
2023-04-15T20:27:21.403Z,86.10
2023-04-15T20:31:00.548Z,86.13
2023-04-15T20:34:36.690Z,86.09
2023-04-15T20:38:16.543Z,86.13
2023-04-15T20:41:51.354Z,86.16
2023-04-15T20:45:29.450Z,86.21
2023-04-15T20:49:07.234Z,86.25
2023-04-15T20:52:44.392Z,86.28
2023-04-15T20:56:22.242Z,86.27
2023-04-15T20:59:59.678Z,86.25
2023-04-15T21:03:38.081Z,86.21
2023-04-15T21:07:16.139Z,86.15
2023-04-15T21:10:53.105Z,86.13
2023-04-15T21:14:30.600Z,86.10
2023-04-15T21:18:08.315Z,86.08
2023-04-15T21:21:46.416Z,86.09
2023-04-15T21:25:23.593Z,86.09
2023-04-15T21:29:01.410Z,86.12
2023-04-15T21:32:39.051Z,86.15
2023-04-15T21:36:16.702Z,86.20
2023-04-15T21:39:54.275Z,86.21
2023-04-15T21:43:32.279Z,86.26
2023-04-15T21:47:09.498Z,86.37
2023-04-15T21:50:47.357Z,86.45
2023-04-15T21:54:24.981Z,86.45
2023-04-15T21:58:02.654Z,86.45
2023-04-15T22:01:40.157Z,86.48
2023-04-15T22:05:18.725Z,86.55
2023-04-15T22:08:57.498Z,86.64
2023-04-15T22:12:33.866Z,86.64
2023-04-15T22:16:11.854Z,86.56
2023-04-15T22:19:51.720Z,86.38
2023-04-15T22:23:26.625Z,86.31
2023-04-15T22:27:04.578Z,86.18
2023-04-15T22:30:42.965Z,86.02
2023-04-15T22:34:22.482Z,85.84
2023-04-15T22:37:57.086Z,85.75
2023-04-15T22:41:34.734Z,85.62
2023-04-15T22:45:12.864Z,85.63
2023-04-15T22:48:50.652Z,85.59
2023-04-15T22:52:30.945Z,85.57
2023-04-15T22:56:05.880Z,85.59
2023-04-15T22:59:43.202Z,85.66
2023-04-15T23:03:21.148Z,85.75
2023-04-15T23:06:58.579Z,85.81
2023-04-15T23:10:36.534Z,85.94
2023-04-15T23:14:13.662Z,86.06
2023-04-15T23:17:51.570Z,86.16
2023-04-15T23:21:31.378Z,86.25
2023-04-15T23:25:07.024Z,86.29
2023-04-15T23:28:44.207Z,86.37
2023-04-15T23:32:22.102Z,86.48
2023-04-15T23:35:59.497Z,86.62
2023-04-15T23:39:37.654Z,86.74
2023-04-15T23:43:15.099Z,86.79
2023-04-15T23:46:53.342Z,86.91
2023-04-15T23:50:32.736Z,86.93
2023-04-15T23:54:08.294Z,87.00
2023-04-15T23:57:46.176Z,87.03
